sensor_id;sensor_type;location;lat;lon;timestamp;P1;durP1;ratioP1;P2;durP2;ratioP2
64353;SDS011;50681;53.334;-6.536;2023-04-24T00:00:39;12.40;;;5.03;;
64353;SDS011;50681;53.334;-6.536;2023-04-24T00:03:05;23.15;;;4.80;;
64353;SDS011;50681;53.334;-6.536;2023-04-24T00:05:32;14.80;;;4.82;;
64353;SDS011;50681;53.334;-6.536;2023-04-24T00:07:57;14.52;;;4.82;;
64353;SDS011;50681;53.334;-6.536;2023-04-24T00:10:23;17.63;;;4.97;;
64353;SDS011;50681;53.334;-6.536;2023-04-24T00:12:48;11.13;;;4.97;;
64353;SDS011;50681;53.334;-6.536;2023-04-24T00:15:14;12.63;;;5.53;;
64353;SDS011;50681;53.334;-6.536;2023-04-24T00:17:39;12.87;;;5.10;;
64353;SDS011;50681;53.334;-6.536;2023-04-24T00:20:05;15.23;;;4.90;;
64353;SDS011;50681;53.334;-6.536;2023-04-24T00:22:31;14.32;;;4.65;;
64353;SDS011;50681;53.334;-6.536;2023-04-24T00:24:57;13.65;;;4.80;;
64353;SDS011;50681;53.334;-6.536;2023-04-24T00:27:23;18.37;;;5.53;;
64353;SDS011;50681;53.334;-6.536;2023-04-24T00:29:48;14.80;;;4.80;;
64353;SDS011;50681;53.334;-6.536;2023-04-24T00:32:14;15.07;;;4.57;;
64353;SDS011;50681;53.334;-6.536;2023-04-24T00:34:40;15.05;;;5.25;;
64353;SDS011;50681;53.334;-6.536;2023-04-24T00:37:06;16.30;;;5.28;;
64353;SDS011;50681;53.334;-6.536;2023-04-24T00:39:32;9.43;;;4.33;;
64353;SDS011;50681;53.334;-6.536;2023-04-24T00:41:57;18.27;;;5.20;;
64353;SDS011;50681;53.334;-6.536;2023-04-24T00:44:23;17.40;;;5.17;;
64353;SDS011;50681;53.334;-6.536;2023-04-24T00:46:49;10.47;;;4.40;;
64353;SDS011;50681;53.334;-6.536;2023-04-24T00:49:20;16.88;;;5.38;;
64353;SDS011;50681;53.334;-6.536;2023-04-24T00:51:46;11.75;;;4.30;;
64353;SDS011;50681;53.334;-6.536;2023-04-24T00:54:12;15.10;;;4.60;;
64353;SDS011;50681;53.334;-6.536;2023-04-24T00:56:38;13.23;;;5.40;;
64353;SDS011;50681;53.334;-6.536;2023-04-24T00:59:04;13.73;;;5.00;;
64353;SDS011;50681;53.334;-6.536;2023-04-24T01:01:30;12.17;;;4.83;;
64353;SDS011;50681;53.334;-6.536;2023-04-24T01:03:55;12.77;;;4.83;;
64353;SDS011;50681;53.334;-6.536;2023-04-24T01:06:22;14.52;;;4.25;;
64353;SDS011;50681;53.334;-6.536;2023-04-24T01:08:52;16.35;;;4.82;;
64353;SDS011;50681;53.334;-6.536;2023-04-24T01:11:17;12.00;;;5.10;;
64353;SDS011;50681;53.334;-6.536;2023-04-24T01:13:43;13.10;;;4.43;;
64353;SDS011;50681;53.334;-6.536;2023-04-24T01:16:10;15.98;;;4.90;;
64353;SDS011;50681;53.334;-6.536;2023-04-24T01:18:35;13.27;;;5.10;;
64353;SDS011;50681;53.334;-6.536;2023-04-24T01:21:02;12.48;;;4.50;;
64353;SDS011;50681;53.334;-6.536;2023-04-24T01:23:29;15.85;;;4.57;;
64353;SDS011;50681;53.334;-6.536;2023-04-24T01:25:54;13.83;;;5.17;;
64353;SDS011;50681;53.334;-6.536;2023-04-24T01:28:20;12.67;;;5.07;;
64353;SDS011;50681;53.334;-6.536;2023-04-24T01:30:46;10.88;;;5.18;;
64353;SDS011;50681;53.334;-6.536;2023-04-24T01:33:11;10.70;;;4.57;;
64353;SDS011;50681;53.334;-6.536;2023-04-24T01:35:38;12.48;;;4.90;;
64353;SDS011;50681;53.334;-6.536;2023-04-24T01:38:03;12.98;;;5.05;;
64353;SDS011;50681;53.334;-6.536;2023-04-24T01:42:56;15.43;;;5.15;;
64353;SDS011;50681;53.334;-6.536;2023-04-24T01:45:23;13.95;;;4.82;;
64353;SDS011;50681;53.334;-6.536;2023-04-24T01:47:49;15.03;;;5.20;;
64353;SDS011;50681;53.334;-6.536;2023-04-24T01:50:15;12.95;;;5.15;;
64353;SDS011;50681;53.334;-6.536;2023-04-24T01:52:41;13.10;;;4.93;;
64353;SDS011;50681;53.334;-6.536;2023-04-24T01:55:06;10.10;;;5.23;;
64353;SDS011;50681;53.334;-6.536;2023-04-24T01:57:32;12.05;;;5.97;;
64353;SDS011;50681;53.334;-6.536;2023-04-24T01:59:58;11.75;;;5.88;;
64353;SDS011;50681;53.334;-6.536;2023-04-24T02:02:24;15.40;;;6.63;;
64353;SDS011;50681;53.334;-6.536;2023-04-24T02:04:52;13.52;;;5.20;;
64353;SDS011;50681;53.334;-6.536;2023-04-24T02:07:21;15.05;;;6.05;;
64353;SDS011;50681;53.334;-6.536;2023-04-24T02:09:46;14.53;;;6.03;;
64353;SDS011;50681;53.334;-6.536;2023-04-24T02:12:12;14.10;;;5.28;;
64353;SDS011;50681;53.334;-6.536;2023-04-24T02:17:08;16.20;;;6.80;;
64353;SDS011;50681;53.334;-6.536;2023-04-24T02:19:36;16.57;;;6.43;;
64353;SDS011;50681;53.334;-6.536;2023-04-24T02:22:01;20.58;;;6.53;;
64353;SDS011;50681;53.334;-6.536;2023-04-24T02:24:27;13.03;;;4.60;;
64353;SDS011;50681;53.334;-6.536;2023-04-24T02:26:52;17.37;;;5.37;;
64353;SDS011;50681;53.334;-6.536;2023-04-24T02:29:18;14.47;;;5.40;;
64353;SDS011;50681;53.334;-6.536;2023-04-24T02:31:43;15.00;;;5.00;;
64353;SDS011;50681;53.334;-6.536;2023-04-24T02:34:09;14.00;;;5.23;;
64353;SDS011;50681;53.334;-6.536;2023-04-24T02:36:34;12.93;;;5.07;;
64353;SDS011;50681;53.334;-6.536;2023-04-24T02:38:59;16.53;;;5.10;;
64353;SDS011;50681;53.334;-6.536;2023-04-24T02:41:26;12.95;;;5.07;;
64353;SDS011;50681;53.334;-6.536;2023-04-24T02:43:56;9.52;;;5.00;;
64353;SDS011;50681;53.334;-6.536;2023-04-24T02:46:21;18.73;;;4.97;;
64353;SDS011;50681;53.334;-6.536;2023-04-24T02:48:47;14.60;;;5.10;;
64353;SDS011;50681;53.334;-6.536;2023-04-24T02:51:12;9.03;;;4.47;;
64353;SDS011;50681;53.334;-6.536;2023-04-24T02:53:37;17.83;;;5.13;;
64353;SDS011;50681;53.334;-6.536;2023-04-24T02:56:03;10.27;;;5.00;;
64353;SDS011;50681;53.334;-6.536;2023-04-24T02:58:29;12.70;;;4.77;;
64353;SDS011;50681;53.334;-6.536;2023-04-24T03:00:55;13.30;;;4.93;;
64353;SDS011;50681;53.334;-6.536;2023-04-24T03:03:21;17.53;;;5.33;;
64353;SDS011;50681;53.334;-6.536;2023-04-24T03:05:47;13.80;;;5.13;;
64353;SDS011;50681;53.334;-6.536;2023-04-24T03:08:12;14.97;;;5.50;;
64353;SDS011;50681;53.334;-6.536;2023-04-24T03:10:39;12.52;;;5.13;;
64353;SDS011;50681;53.334;-6.536;2023-04-24T03:13:05;15.17;;;5.60;;
64353;SDS011;50681;53.334;-6.536;2023-04-24T03:15:30;13.33;;;5.33;;
64353;SDS011;50681;53.334;-6.536;2023-04-24T03:17:56;11.37;;;5.40;;
64353;SDS011;50681;53.334;-6.536;2023-04-24T03:20:21;16.87;;;6.07;;
64353;SDS011;50681;53.334;-6.536;2023-04-24T03:22:47;12.90;;;5.63;;
64353;SDS011;50681;53.334;-6.536;2023-04-24T03:25:12;12.73;;;5.60;;
64353;SDS011;50681;53.334;-6.536;2023-04-24T03:27:38;16.50;;;5.20;;
64353;SDS011;50681;53.334;-6.536;2023-04-24T03:30:04;19.10;;;5.10;;
64353;SDS011;50681;53.334;-6.536;2023-04-24T03:32:31;18.50;;;5.75;;
64353;SDS011;50681;53.334;-6.536;2023-04-24T03:34:57;11.33;;;5.60;;
64353;SDS011;50681;53.334;-6.536;2023-04-24T03:37:23;18.88;;;6.47;;
64353;SDS011;50681;53.334;-6.536;2023-04-24T03:39:48;14.40;;;6.10;;
64353;SDS011;50681;53.334;-6.536;2023-04-24T03:42:13;15.70;;;5.47;;
64353;SDS011;50681;53.334;-6.536;2023-04-24T03:44:39;15.60;;;5.67;;
64353;SDS011;50681;53.334;-6.536;2023-04-24T03:47:04;13.77;;;6.10;;
64353;SDS011;50681;53.334;-6.536;2023-04-24T03:49:30;19.03;;;6.23;;
64353;SDS011;50681;53.334;-6.536;2023-04-24T03:51:55;13.43;;;6.40;;
64353;SDS011;50681;53.334;-6.536;2023-04-24T03:54:20;16.20;;;6.43;;
64353;SDS011;50681;53.334;-6.536;2023-04-24T03:56:46;15.03;;;6.47;;
64353;SDS011;50681;53.334;-6.536;2023-04-24T03:59:11;11.57;;;6.97;;
64353;SDS011;50681;53.334;-6.536;2023-04-24T04:04:04;19.27;;;7.38;;
64353;SDS011;50681;53.334;-6.536;2023-04-24T04:06:30;19.67;;;7.57;;
64353;SDS011;50681;53.334;-6.536;2023-04-24T04:08:56;15.07;;;6.90;;
64353;SDS011;50681;53.334;-6.536;2023-04-24T04:11:22;18.50;;;7.03;;
64353;SDS011;50681;53.334;-6.536;2023-04-24T04:13:48;16.13;;;5.97;;
64353;SDS011;50681;53.334;-6.536;2023-04-24T04:16:14;16.63;;;6.17;;
64353;SDS011;50681;53.334;-6.536;2023-04-24T04:18:42;14.93;;;5.82;;
64353;SDS011;50681;53.334;-6.536;2023-04-24T04:21:07;12.50;;;5.68;;
64353;SDS011;50681;53.334;-6.536;2023-04-24T04:23:33;13.77;;;6.23;;
64353;SDS011;50681;53.334;-6.536;2023-04-24T04:25:58;12.40;;;6.17;;
64353;SDS011;50681;53.334;-6.536;2023-04-24T04:28:24;16.17;;;6.27;;
64353;SDS011;50681;53.334;-6.536;2023-04-24T04:30:49;12.23;;;5.83;;
64353;SDS011;50681;53.334;-6.536;2023-04-24T04:33:20;12.07;;;5.97;;
64353;SDS011;50681;53.334;-6.536;2023-04-24T04:35:46;16.98;;;6.03;;
64353;SDS011;50681;53.334;-6.536;2023-04-24T04:38:25;14.15;;;5.75;;
64353;SDS011;50681;53.334;-6.536;2023-04-24T04:40:55;13.50;;;5.90;;
64353;SDS011;50681;53.334;-6.536;2023-04-24T04:43:24;14.95;;;6.30;;
64353;SDS011;50681;53.334;-6.536;2023-04-24T04:45:50;17.43;;;6.33;;
64353;SDS011;50681;53.334;-6.536;2023-04-24T04:48:19;12.75;;;5.75;;
64353;SDS011;50681;53.334;-6.536;2023-04-24T04:50:46;11.32;;;6.25;;
64353;SDS011;50681;53.334;-6.536;2023-04-24T04:53:15;18.60;;;5.77;;
64353;SDS011;50681;53.334;-6.536;2023-04-24T04:55:41;18.10;;;6.63;;
64353;SDS011;50681;53.334;-6.536;2023-04-24T04:58:07;17.83;;;6.10;;
64353;SDS011;50681;53.334;-6.536;2023-04-24T05:00:32;16.37;;;5.90;;
64353;SDS011;50681;53.334;-6.536;2023-04-24T05:03:00;11.10;;;5.70;;
64353;SDS011;50681;53.334;-6.536;2023-04-24T05:05:26;14.65;;;6.22;;
64353;SDS011;50681;53.334;-6.536;2023-04-24T05:07:52;13.50;;;6.17;;
64353;SDS011;50681;53.334;-6.536;2023-04-24T05:10:17;18.27;;;5.80;;
64353;SDS011;50681;53.334;-6.536;2023-04-24T05:12:42;20.57;;;6.30;;
64353;SDS011;50681;53.334;-6.536;2023-04-24T05:15:08;11.83;;;5.50;;
64353;SDS011;50681;53.334;-6.536;2023-04-24T05:17:34;14.07;;;7.55;;
64353;SDS011;50681;53.334;-6.536;2023-04-24T05:19:59;11.90;;;6.03;;
64353;SDS011;50681;53.334;-6.536;2023-04-24T05:22:25;17.63;;;5.75;;
64353;SDS011;50681;53.334;-6.536;2023-04-24T05:24:51;10.70;;;4.83;;
64353;SDS011;50681;53.334;-6.536;2023-04-24T05:27:16;10.23;;;4.37;;
64353;SDS011;50681;53.334;-6.536;2023-04-24T05:29:42;6.30;;;3.20;;
64353;SDS011;50681;53.334;-6.536;2023-04-24T05:32:08;6.32;;;3.30;;
64353;SDS011;50681;53.334;-6.536;2023-04-24T05:34:34;6.67;;;3.13;;
64353;SDS011;50681;53.334;-6.536;2023-04-24T05:36:59;7.10;;;3.55;;
64353;SDS011;50681;53.334;-6.536;2023-04-24T05:39:25;5.80;;;2.60;;
64353;SDS011;50681;53.334;-6.536;2023-04-24T05:41:50;5.20;;;2.60;;
64353;SDS011;50681;53.334;-6.536;2023-04-24T05:44:16;6.18;;;2.55;;
64353;SDS011;50681;53.334;-6.536;2023-04-24T05:46:42;5.80;;;2.77;;
64353;SDS011;50681;53.334;-6.536;2023-04-24T05:49:07;8.53;;;2.60;;
64353;SDS011;50681;53.334;-6.536;2023-04-24T05:51:33;9.80;;;2.83;;
64353;SDS011;50681;53.334;-6.536;2023-04-24T05:53:58;9.60;;;2.90;;
64353;SDS011;50681;53.334;-6.536;2023-04-24T05:56:24;9.63;;;2.10;;
64353;SDS011;50681;53.334;-6.536;2023-04-24T05:58:50;10.30;;;2.42;;
64353;SDS011;50681;53.334;-6.536;2023-04-24T06:01:15;8.87;;;2.00;;
64353;SDS011;50681;53.334;-6.536;2023-04-24T06:03:41;5.87;;;1.70;;
64353;SDS011;50681;53.334;-6.536;2023-04-24T06:06:07;12.20;;;2.73;;
64353;SDS011;50681;53.334;-6.536;2023-04-24T06:08:32;17.83;;;2.95;;
64353;SDS011;50681;53.334;-6.536;2023-04-24T06:10:58;10.27;;;1.95;;
64353;SDS011;50681;53.334;-6.536;2023-04-24T06:13:24;14.63;;;3.20;;
64353;SDS011;50681;53.334;-6.536;2023-04-24T06:15:50;6.03;;;1.77;;
64353;SDS011;50681;53.334;-6.536;2023-04-24T06:18:15;8.95;;;2.50;;
64353;SDS011;50681;53.334;-6.536;2023-04-24T06:20:41;10.45;;;2.70;;
64353;SDS011;50681;53.334;-6.536;2023-04-24T06:23:07;18.45;;;2.90;;
64353;SDS011;50681;53.334;-6.536;2023-04-24T06:25:32;6.10;;;1.80;;
64353;SDS011;50681;53.334;-6.536;2023-04-24T06:27:58;14.83;;;2.60;;
64353;SDS011;50681;53.334;-6.536;2023-04-24T06:30:23;15.27;;;3.93;;
64353;SDS011;50681;53.334;-6.536;2023-04-24T06:32:50;5.05;;;1.50;;
64353;SDS011;50681;53.334;-6.536;2023-04-24T06:35:15;10.55;;;2.10;;
64353;SDS011;50681;53.334;-6.536;2023-04-24T06:37:44;13.15;;;2.40;;
64353;SDS011;50681;53.334;-6.536;2023-04-24T06:40:10;11.88;;;3.05;;
64353;SDS011;50681;53.334;-6.536;2023-04-24T06:42:36;12.60;;;2.87;;
64353;SDS011;50681;53.334;-6.536;2023-04-24T06:45:02;12.60;;;3.03;;
64353;SDS011;50681;53.334;-6.536;2023-04-24T06:47:27;11.40;;;2.30;;
64353;SDS011;50681;53.334;-6.536;2023-04-24T06:49:53;15.50;;;2.60;;
64353;SDS011;50681;53.334;-6.536;2023-04-24T06:52:19;9.60;;;2.80;;
64353;SDS011;50681;53.334;-6.536;2023-04-24T06:57:36;15.32;;;3.33;;
64353;SDS011;50681;53.334;-6.536;2023-04-24T07:00:01;9.90;;;2.33;;
64353;SDS011;50681;53.334;-6.536;2023-04-24T07:02:28;11.40;;;2.30;;
64353;SDS011;50681;53.334;-6.536;2023-04-24T07:04:53;11.20;;;2.90;;
64353;SDS011;50681;53.334;-6.536;2023-04-24T07:07:19;14.77;;;3.13;;
64353;SDS011;50681;53.334;-6.536;2023-04-24T07:09:44;7.40;;;2.53;;
64353;SDS011;50681;53.334;-6.536;2023-04-24T07:12:10;6.88;;;2.35;;
64353;SDS011;50681;53.334;-6.536;2023-04-24T07:14:37;10.05;;;2.28;;
64353;SDS011;50681;53.334;-6.536;2023-04-24T07:17:03;3.90;;;1.60;;
64353;SDS011;50681;53.334;-6.536;2023-04-24T07:19:30;5.68;;;1.75;;
64353;SDS011;50681;53.334;-6.536;2023-04-24T07:21:56;11.37;;;2.23;;
64353;SDS011;50681;53.334;-6.536;2023-04-24T07:24:24;8.63;;;2.10;;
64353;SDS011;50681;53.334;-6.536;2023-04-24T07:29:16;8.60;;;2.08;;
64353;SDS011;50681;53.334;-6.536;2023-04-24T07:31:41;8.67;;;1.67;;
64353;SDS011;50681;53.334;-6.536;2023-04-24T07:34:07;6.90;;;1.83;;
64353;SDS011;50681;53.334;-6.536;2023-04-24T07:36:34;5.60;;;1.83;;
64353;SDS011;50681;53.334;-6.536;2023-04-24T07:38:59;9.15;;;1.98;;
64353;SDS011;50681;53.334;-6.536;2023-04-24T07:41:24;7.13;;;1.90;;
64353;SDS011;50681;53.334;-6.536;2023-04-24T07:43:50;10.80;;;2.57;;
64353;SDS011;50681;53.334;-6.536;2023-04-24T07:46:18;6.20;;;2.08;;
64353;SDS011;50681;53.334;-6.536;2023-04-24T07:48:44;12.80;;;2.27;;
64353;SDS011;50681;53.334;-6.536;2023-04-24T07:51:11;12.32;;;1.88;;
64353;SDS011;50681;53.334;-6.536;2023-04-24T07:53:38;4.80;;;1.90;;
64353;SDS011;50681;53.334;-6.536;2023-04-24T07:56:04;7.40;;;1.83;;
64353;SDS011;50681;53.334;-6.536;2023-04-24T07:58:29;9.95;;;2.10;;
64353;SDS011;50681;53.334;-6.536;2023-04-24T08:00:55;9.13;;;2.10;;
64353;SDS011;50681;53.334;-6.536;2023-04-24T08:03:20;6.23;;;2.00;;
64353;SDS011;50681;53.334;-6.536;2023-04-24T08:05:46;16.10;;;2.72;;
64353;SDS011;50681;53.334;-6.536;2023-04-24T08:08:12;8.23;;;1.93;;
64353;SDS011;50681;53.334;-6.536;2023-04-24T08:10:37;7.77;;;2.10;;
64353;SDS011;50681;53.334;-6.536;2023-04-24T08:13:02;15.43;;;2.43;;
64353;SDS011;50681;53.334;-6.536;2023-04-24T08:15:28;8.07;;;2.40;;
64353;SDS011;50681;53.334;-6.536;2023-04-24T08:17:53;10.97;;;2.50;;
64353;SDS011;50681;53.334;-6.536;2023-04-24T08:20:19;11.40;;;2.53;;
64353;SDS011;50681;53.334;-6.536;2023-04-24T08:22:44;8.80;;;2.07;;
64353;SDS011;50681;53.334;-6.536;2023-04-24T08:25:12;14.88;;;2.95;;
64353;SDS011;50681;53.334;-6.536;2023-04-24T08:27:38;7.90;;;1.80;;
64353;SDS011;50681;53.334;-6.536;2023-04-24T08:30:04;10.40;;;2.13;;
64353;SDS011;50681;53.334;-6.536;2023-04-24T08:32:30;8.40;;;2.85;;
64353;SDS011;50681;53.334;-6.536;2023-04-24T08:34:56;9.73;;;2.50;;
64353;SDS011;50681;53.334;-6.536;2023-04-24T08:37:25;13.80;;;2.97;;
64353;SDS011;50681;53.334;-6.536;2023-04-24T08:39:51;13.48;;;3.10;;
64353;SDS011;50681;53.334;-6.536;2023-04-24T08:42:18;18.08;;;2.72;;
64353;SDS011;50681;53.334;-6.536;2023-04-24T08:44:44;10.57;;;2.40;;
64353;SDS011;50681;53.334;-6.536;2023-04-24T08:47:10;10.95;;;2.65;;
64353;SDS011;50681;53.334;-6.536;2023-04-24T08:49:37;10.85;;;2.60;;
64353;SDS011;50681;53.334;-6.536;2023-04-24T08:52:04;10.68;;;2.60;;
64353;SDS011;50681;53.334;-6.536;2023-04-24T08:56:59;9.63;;;1.83;;
64353;SDS011;50681;53.334;-6.536;2023-04-24T08:59:29;13.10;;;2.58;;
64353;SDS011;50681;53.334;-6.536;2023-04-24T09:01:55;9.65;;;2.50;;
64353;SDS011;50681;53.334;-6.536;2023-04-24T09:04:21;7.95;;;2.35;;
64353;SDS011;50681;53.334;-6.536;2023-04-24T09:06:49;6.63;;;1.95;;
64353;SDS011;50681;53.334;-6.536;2023-04-24T09:09:16;8.75;;;2.88;;
64353;SDS011;50681;53.334;-6.536;2023-04-24T09:11:43;6.40;;;2.30;;
64353;SDS011;50681;53.334;-6.536;2023-04-24T09:14:09;13.15;;;2.25;;
64353;SDS011;50681;53.334;-6.536;2023-04-24T09:16:36;6.80;;;2.15;;
64353;SDS011;50681;53.334;-6.536;2023-04-24T09:19:02;5.40;;;1.80;;
64353;SDS011;50681;53.334;-6.536;2023-04-24T09:21:31;7.93;;;2.28;;
64353;SDS011;50681;53.334;-6.536;2023-04-24T09:24:03;7.05;;;2.25;;
64353;SDS011;50681;53.334;-6.536;2023-04-24T09:26:30;10.00;;;1.80;;
64353;SDS011;50681;53.334;-6.536;2023-04-24T09:28:57;7.00;;;2.00;;
64353;SDS011;50681;53.334;-6.536;2023-04-24T09:31:23;5.03;;;1.50;;
64353;SDS011;50681;53.334;-6.536;2023-04-24T09:33:58;10.30;;;2.33;;
64353;SDS011;50681;53.334;-6.536;2023-04-24T09:36:29;5.05;;;1.52;;
64353;SDS011;50681;53.334;-6.536;2023-04-24T09:39:01;8.43;;;1.70;;
64353;SDS011;50681;53.334;-6.536;2023-04-24T09:41:27;7.65;;;1.85;;
64353;SDS011;50681;53.334;-6.536;2023-04-24T09:43:56;3.33;;;1.17;;
64353;SDS011;50681;53.334;-6.536;2023-04-24T09:46:29;7.20;;;1.52;;
64353;SDS011;50681;53.334;-6.536;2023-04-24T09:49:02;2.90;;;1.15;;
64353;SDS011;50681;53.334;-6.536;2023-04-24T09:51:34;2.92;;;0.98;;
64353;SDS011;50681;53.334;-6.536;2023-04-24T09:54:01;7.47;;;2.22;;
64353;SDS011;50681;53.334;-6.536;2023-04-24T09:56:29;5.18;;;1.48;;
64353;SDS011;50681;53.334;-6.536;2023-04-24T09:59:07;4.55;;;1.70;;
64353;SDS011;50681;53.334;-6.536;2023-04-24T10:01:32;8.45;;;1.98;;
64353;SDS011;50681;53.334;-6.536;2023-04-24T10:03:58;9.20;;;2.17;;
64353;SDS011;50681;53.334;-6.536;2023-04-24T10:06:29;11.15;;;2.10;;
64353;SDS011;50681;53.334;-6.536;2023-04-24T10:08:57;6.57;;;2.20;;
64353;SDS011;50681;53.334;-6.536;2023-04-24T10:11:25;10.23;;;2.45;;
64353;SDS011;50681;53.334;-6.536;2023-04-24T10:13:52;10.50;;;2.97;;
64353;SDS011;50681;53.334;-6.536;2023-04-24T10:16:17;8.70;;;2.77;;
64353;SDS011;50681;53.334;-6.536;2023-04-24T10:18:46;12.50;;;2.35;;
64353;SDS011;50681;53.334;-6.536;2023-04-24T10:21:14;6.85;;;2.45;;
64353;SDS011;50681;53.334;-6.536;2023-04-24T10:23:39;7.50;;;2.25;;
64353;SDS011;50681;53.334;-6.536;2023-04-24T10:26:08;7.00;;;1.85;;
64353;SDS011;50681;53.334;-6.536;2023-04-24T10:28:35;4.68;;;1.52;;
64353;SDS011;50681;53.334;-6.536;2023-04-24T10:31:01;11.32;;;2.38;;
64353;SDS011;50681;53.334;-6.536;2023-04-24T10:35:56;9.73;;;2.50;;
64353;SDS011;50681;53.334;-6.536;2023-04-24T10:38:24;4.90;;;1.88;;
64353;SDS011;50681;53.334;-6.536;2023-04-24T10:40:54;9.48;;;2.20;;
64353;SDS011;50681;53.334;-6.536;2023-04-24T10:43:31;7.47;;;1.85;;
64353;SDS011;50681;53.334;-6.536;2023-04-24T10:46:02;16.00;;;2.22;;
64353;SDS011;50681;53.334;-6.536;2023-04-24T10:48:30;8.88;;;2.03;;
64353;SDS011;50681;53.334;-6.536;2023-04-24T10:56:08;8.25;;;1.58;;
64353;SDS011;50681;53.334;-6.536;2023-04-24T11:03:54;6.60;;;1.80;;
64353;SDS011;50681;53.334;-6.536;2023-04-24T11:06:34;4.68;;;1.50;;
64353;SDS011;50681;53.334;-6.536;2023-04-24T11:09:08;6.32;;;2.25;;
64353;SDS011;50681;53.334;-6.536;2023-04-24T11:11:37;6.88;;;1.85;;
64353;SDS011;50681;53.334;-6.536;2023-04-24T11:14:09;8.27;;;1.77;;
64353;SDS011;50681;53.334;-6.536;2023-04-24T11:16:36;9.98;;;1.90;;
64353;SDS011;50681;53.334;-6.536;2023-04-24T11:19:26;8.43;;;2.03;;
64353;SDS011;50681;53.334;-6.536;2023-04-24T11:22:03;8.98;;;1.42;;
64353;SDS011;50681;53.334;-6.536;2023-04-24T11:24:39;16.63;;;2.40;;
64353;SDS011;50681;53.334;-6.536;2023-04-24T11:27:20;20.63;;;2.55;;
64353;SDS011;50681;53.334;-6.536;2023-04-24T11:35:00;15.30;;;2.33;;
64353;SDS011;50681;53.334;-6.536;2023-04-24T11:39:57;12.82;;;2.53;;
64353;SDS011;50681;53.334;-6.536;2023-04-24T11:42:23;7.60;;;1.95;;
64353;SDS011;50681;53.334;-6.536;2023-04-24T11:44:51;13.55;;;2.65;;
64353;SDS011;50681;53.334;-6.536;2023-04-24T11:47:18;18.65;;;2.33;;
64353;SDS011;50681;53.334;-6.536;2023-04-24T11:49:43;13.43;;;2.50;;
64353;SDS011;50681;53.334;-6.536;2023-04-24T11:52:09;20.53;;;3.00;;
64353;SDS011;50681;53.334;-6.536;2023-04-24T11:54:35;15.68;;;2.75;;
64353;SDS011;50681;53.334;-6.536;2023-04-24T11:57:03;10.35;;;2.58;;
64353;SDS011;50681;53.334;-6.536;2023-04-24T11:59:34;15.52;;;2.40;;
64353;SDS011;50681;53.334;-6.536;2023-04-24T12:02:00;10.35;;;3.22;;
64353;SDS011;50681;53.334;-6.536;2023-04-24T12:04:26;14.03;;;2.40;;
64353;SDS011;50681;53.334;-6.536;2023-04-24T12:07:01;4.97;;;1.53;;
64353;SDS011;50681;53.334;-6.536;2023-04-24T12:09:27;8.73;;;2.10;;
64353;SDS011;50681;53.334;-6.536;2023-04-24T12:11:53;10.27;;;2.27;;
64353;SDS011;50681;53.334;-6.536;2023-04-24T12:14:20;18.02;;;2.70;;
64353;SDS011;50681;53.334;-6.536;2023-04-24T12:16:47;19.10;;;2.20;;
64353;SDS011;50681;53.334;-6.536;2023-04-24T12:19:23;8.95;;;2.33;;
64353;SDS011;50681;53.334;-6.536;2023-04-24T12:21:59;8.45;;;2.08;;
64353;SDS011;50681;53.334;-6.536;2023-04-24T12:24:25;9.32;;;2.92;;
64353;SDS011;50681;53.334;-6.536;2023-04-24T12:26:51;9.10;;;2.13;;
64353;SDS011;50681;53.334;-6.536;2023-04-24T12:29:20;8.17;;;1.73;;
64353;SDS011;50681;53.334;-6.536;2023-04-24T12:31:46;9.48;;;2.30;;
64353;SDS011;50681;53.334;-6.536;2023-04-24T12:34:22;9.93;;;2.43;;
64353;SDS011;50681;53.334;-6.536;2023-04-24T12:36:49;13.82;;;2.40;;
64353;SDS011;50681;53.334;-6.536;2023-04-24T12:39:16;8.40;;;2.07;;
64353;SDS011;50681;53.334;-6.536;2023-04-24T12:41:58;8.88;;;2.38;;
64353;SDS011;50681;53.334;-6.536;2023-04-24T12:44:31;13.13;;;2.13;;
64353;SDS011;50681;53.334;-6.536;2023-04-24T12:47:00;16.52;;;2.60;;
64353;SDS011;50681;53.334;-6.536;2023-04-24T12:49:26;5.65;;;1.73;;
64353;SDS011;50681;53.334;-6.536;2023-04-24T12:51:53;16.85;;;2.55;;
64353;SDS011;50681;53.334;-6.536;2023-04-24T12:54:19;11.93;;;2.33;;
64353;SDS011;50681;53.334;-6.536;2023-04-24T12:56:44;8.77;;;2.30;;
64353;SDS011;50681;53.334;-6.536;2023-04-24T12:59:09;15.50;;;2.57;;
64353;SDS011;50681;53.334;-6.536;2023-04-24T13:01:35;11.90;;;2.43;;
64353;SDS011;50681;53.334;-6.536;2023-04-24T13:04:00;7.73;;;1.43;;
64353;SDS011;50681;53.334;-6.536;2023-04-24T13:06:26;13.47;;;1.77;;
64353;SDS011;50681;53.334;-6.536;2023-04-24T13:08:51;13.07;;;2.23;;
64353;SDS011;50681;53.334;-6.536;2023-04-24T13:11:17;10.48;;;2.15;;
64353;SDS011;50681;53.334;-6.536;2023-04-24T13:13:43;9.80;;;1.97;;
64353;SDS011;50681;53.334;-6.536;2023-04-24T13:16:08;16.57;;;2.47;;
64353;SDS011;50681;53.334;-6.536;2023-04-24T13:18:34;9.70;;;2.23;;
64353;SDS011;50681;53.334;-6.536;2023-04-24T13:20:59;16.67;;;2.47;;
64353;SDS011;50681;53.334;-6.536;2023-04-24T13:23:25;9.93;;;2.03;;
64353;SDS011;50681;53.334;-6.536;2023-04-24T13:25:51;10.00;;;2.17;;
64353;SDS011;50681;53.334;-6.536;2023-04-24T13:28:16;11.33;;;1.90;;
64353;SDS011;50681;53.334;-6.536;2023-04-24T13:30:42;8.60;;;1.70;;
64353;SDS011;50681;53.334;-6.536;2023-04-24T13:33:07;12.53;;;2.43;;
64353;SDS011;50681;53.334;-6.536;2023-04-24T13:35:33;11.20;;;2.10;;
64353;SDS011;50681;53.334;-6.536;2023-04-24T13:37:58;9.77;;;2.30;;
64353;SDS011;50681;53.334;-6.536;2023-04-24T13:40:23;8.23;;;1.70;;
64353;SDS011;50681;53.334;-6.536;2023-04-24T13:42:49;6.37;;;1.73;;
64353;SDS011;50681;53.334;-6.536;2023-04-24T13:45:14;12.63;;;1.97;;
64353;SDS011;50681;53.334;-6.536;2023-04-24T13:47:40;10.53;;;1.93;;
64353;SDS011;50681;53.334;-6.536;2023-04-24T13:50:06;9.50;;;1.90;;
64353;SDS011;50681;53.334;-6.536;2023-04-24T13:52:33;3.95;;;1.80;;
64353;SDS011;50681;53.334;-6.536;2023-04-24T13:54:59;14.67;;;2.20;;
64353;SDS011;50681;53.334;-6.536;2023-04-24T13:57:24;8.97;;;2.20;;
64353;SDS011;50681;53.334;-6.536;2023-04-24T13:59:50;5.27;;;1.40;;
64353;SDS011;50681;53.334;-6.536;2023-04-24T14:02:15;7.10;;;2.07;;
64353;SDS011;50681;53.334;-6.536;2023-04-24T14:04:40;8.93;;;2.23;;
64353;SDS011;50681;53.334;-6.536;2023-04-24T14:07:06;10.83;;;2.10;;
64353;SDS011;50681;53.334;-6.536;2023-04-24T14:09:33;9.98;;;2.10;;
64353;SDS011;50681;53.334;-6.536;2023-04-24T14:11:58;7.37;;;1.63;;
64353;SDS011;50681;53.334;-6.536;2023-04-24T14:14:26;13.35;;;2.45;;
64353;SDS011;50681;53.334;-6.536;2023-04-24T14:16:51;12.77;;;1.83;;
64353;SDS011;50681;53.334;-6.536;2023-04-24T14:19:17;11.37;;;2.10;;
64353;SDS011;50681;53.334;-6.536;2023-04-24T14:21:42;7.50;;;2.00;;
64353;SDS011;50681;53.334;-6.536;2023-04-24T14:24:08;14.40;;;2.23;;
64353;SDS011;50681;53.334;-6.536;2023-04-24T14:26:33;9.43;;;2.40;;
64353;SDS011;50681;53.334;-6.536;2023-04-24T14:28:58;8.33;;;2.43;;
64353;SDS011;50681;53.334;-6.536;2023-04-24T14:31:24;8.37;;;2.17;;
64353;SDS011;50681;53.334;-6.536;2023-04-24T14:33:49;12.70;;;2.17;;
64353;SDS011;50681;53.334;-6.536;2023-04-24T14:36:15;7.67;;;1.97;;
64353;SDS011;50681;53.334;-6.536;2023-04-24T14:38:40;9.47;;;1.93;;
64353;SDS011;50681;53.334;-6.536;2023-04-24T14:41:06;10.03;;;2.63;;
64353;SDS011;50681;53.334;-6.536;2023-04-24T14:43:34;10.57;;;2.33;;
64353;SDS011;50681;53.334;-6.536;2023-04-24T14:46:00;11.13;;;2.38;;
64353;SDS011;50681;53.334;-6.536;2023-04-24T14:48:26;14.67;;;2.67;;
64353;SDS011;50681;53.334;-6.536;2023-04-24T14:50:51;10.37;;;1.90;;
64353;SDS011;50681;53.334;-6.536;2023-04-24T14:53:17;7.03;;;1.87;;
64353;SDS011;50681;53.334;-6.536;2023-04-24T14:55:42;10.03;;;2.07;;
64353;SDS011;50681;53.334;-6.536;2023-04-24T14:58:08;10.90;;;2.47;;